createdAt,value
2019-05-07T00:01:13.555Z,75.00
2019-05-07T00:03:42.393Z,75.11
2019-05-07T00:06:12.359Z,75.30
2019-05-07T00:08:44.656Z,75.55
2019-05-07T00:11:12.609Z,75.64
2019-05-07T00:13:44.151Z,75.63
2019-05-07T00:16:12.790Z,75.69
2019-05-07T00:18:42.918Z,75.90
2019-05-07T00:21:12.585Z,76.21
2019-05-07T00:23:43.280Z,76.21
2019-05-07T00:26:13.226Z,76.35
2019-05-07T00:28:43.195Z,76.52
2019-05-07T00:31:12.480Z,76.59
2019-05-07T00:33:43.317Z,76.79
2019-05-07T00:36:27.295Z,77.20
2019-05-07T00:39:03.293Z,77.16
2019-05-07T00:41:42.672Z,77.26
2019-05-07T00:44:13.568Z,77.45
2019-05-07T00:46:42.812Z,77.50
2019-05-07T00:49:12.691Z,77.60
2019-05-07T00:51:42.523Z,77.71
2019-05-07T00:54:12.278Z,77.85
2019-05-07T00:56:42.882Z,77.73
2019-05-07T00:59:13.116Z,77.68
2019-05-07T01:01:43.269Z,77.74
2019-05-07T01:04:12.130Z,77.75
2019-05-07T01:06:42.355Z,77.77
2019-05-07T01:09:12.276Z,77.80
2019-05-07T01:11:42.898Z,77.78
2019-05-07T01:14:12.368Z,77.92
2019-05-07T01:16:42.042Z,78.04
2019-05-07T01:19:12.587Z,78.10
2019-05-07T01:21:43.288Z,78.34
2019-05-07T01:24:12.435Z,78.22
2019-05-07T01:26:42.574Z,78.11
2019-05-07T01:29:12.787Z,78.64
2019-05-07T01:31:48.398Z,78.69
2019-05-07T01:34:25.252Z,78.92
2019-05-07T01:36:54.149Z,79.00
2019-05-07T01:39:23.306Z,79.45
2019-05-07T01:41:52.485Z,79.38
2019-05-07T01:44:22.099Z,79.68
2019-05-07T01:46:52.950Z,79.91
2019-05-07T01:49:23.879Z,80.02
2019-05-07T01:51:52.995Z,80.13
2019-05-07T01:54:23.796Z,80.16
2019-05-07T01:56:52.739Z,80.14
2019-05-07T01:59:22.489Z,79.99
2019-05-07T02:01:53.030Z,80.21
2019-05-07T02:04:42.828Z,80.43
2019-05-07T02:07:15.527Z,80.39
2019-05-07T02:09:48.435Z,80.41
2019-05-07T02:12:26.465Z,80.38
2019-05-07T02:14:55.316Z,80.36
2019-05-07T02:17:24.152Z,80.25
2019-05-07T02:19:53.047Z,80.12
2019-05-07T02:22:22.677Z,79.97
2019-05-07T02:24:52.369Z,79.79
2019-05-07T02:27:22.079Z,79.68
2019-05-07T02:29:52.832Z,79.86
2019-05-07T02:32:24.064Z,79.68
2019-05-07T02:34:54.509Z,79.87
2019-05-07T02:37:35.713Z,79.88
2019-05-07T02:40:14.132Z,79.57
2019-05-07T02:42:44.313Z,79.48
2019-05-07T02:45:33.242Z,79.47
2019-05-07T02:50:53.850Z,79.66
2019-05-07T02:53:53.614Z,79.71
2019-05-07T02:56:23.605Z,80.01
2019-05-07T02:58:52.880Z,80.09
2019-05-07T03:01:22.645Z,80.25
2019-05-07T03:03:52.984Z,80.40
2019-05-07T03:06:23.392Z,80.20
2019-05-07T03:08:53.435Z,80.26
2019-05-07T03:11:23.015Z,80.26
2019-05-07T03:13:53.742Z,80.30
2019-05-07T03:16:38.737Z,80.36
2019-05-07T03:18:53.384Z,80.53
2019-05-07T03:21:23.538Z,80.63
2019-05-07T03:24:03.548Z,80.70
2019-05-07T03:26:36.870Z,80.77
2019-05-07T03:29:12.851Z,80.82
2019-05-07T03:31:59.214Z,80.90
2019-05-07T03:34:47.488Z,81.07
2019-05-07T03:37:18.969Z,81.16
2019-05-07T03:39:47.752Z,81.12
2019-05-07T03:42:16.928Z,81.20
2019-05-07T03:45:13.681Z,81.41
2019-05-07T03:47:45.028Z,81.34
2019-05-07T03:50:14.932Z,81.25
2019-05-07T03:52:44.111Z,81.26
2019-05-07T03:55:14.524Z,81.28
2019-05-07T03:57:44.486Z,81.48
2019-05-07T04:00:13.676Z,81.60
2019-05-07T04:02:43.758Z,81.60
2019-05-07T04:05:14.257Z,81.69
2019-05-07T04:07:43.603Z,81.82
2019-05-07T04:10:14.897Z,81.99
2019-05-07T04:12:44.290Z,82.06
2019-05-07T04:15:15.495Z,82.13
2019-05-07T04:17:46.271Z,82.32
2019-05-07T04:20:15.530Z,82.46
2019-05-07T04:22:44.783Z,82.55
2019-05-07T04:25:38.892Z,82.58
2019-05-07T04:28:19.729Z,82.69
2019-05-07T04:30:48.565Z,82.80
2019-05-07T04:33:19.210Z,82.97
2019-05-07T04:35:53.884Z,83.39
2019-05-07T04:38:23.863Z,83.64
2019-05-07T04:40:53.776Z,83.91
2019-05-07T04:43:23.513Z,83.95
2019-05-07T04:45:53.679Z,84.02
2019-05-07T04:48:23.438Z,84.06
2019-05-07T04:50:54.716Z,84.17
2019-05-07T04:53:24.005Z,84.20
2019-05-07T04:55:53.724Z,84.24
2019-05-07T04:58:24.881Z,84.45
2019-05-07T05:00:53.919Z,84.57
2019-05-07T05:03:25.016Z,84.70
2019-05-07T05:05:53.978Z,84.78
2019-05-07T05:08:23.650Z,84.71
2019-05-07T05:10:53.684Z,84.88
2019-05-07T05:13:23.864Z,84.68
2019-05-07T05:15:53.043Z,84.28
2019-05-07T05:18:22.156Z,83.47
2019-05-07T05:21:22.660Z,83.89
2019-05-07T05:23:56.385Z,83.92
2019-05-07T05:26:25.212Z,83.25
2019-05-07T05:28:54.044Z,82.36
2019-05-07T05:31:22.858Z,82.11
2019-05-07T05:33:52.669Z,81.24
2019-05-07T05:36:22.307Z,81.45
2019-05-07T05:38:52.994Z,81.63
2019-05-07T05:41:24.388Z,81.97
2019-05-07T05:44:07.907Z,80.28
2019-05-07T05:46:36.742Z,78.97
2019-05-07T05:49:05.740Z,78.39
2019-05-07T05:51:46.389Z,78.92
2019-05-07T05:54:32.635Z,79.12
2019-05-07T05:57:22.846Z,77.89
2019-05-07T06:00:13.029Z,76.09
2019-05-07T06:03:11.885Z,76.11
2019-05-07T06:06:01.977Z,75.44
2019-05-07T06:08:39.323Z,67.22
2019-05-07T06:11:45.466Z,69.41
2019-05-07T06:14:26.402Z,65.20
2019-05-07T06:17:04.210Z,57.47
2019-05-07T06:19:43.639Z,53.34
2019-05-07T06:22:30.107Z,53.37
2019-05-07T06:25:08.158Z,48.19
2019-05-07T06:27:37.028Z,45.97
2019-05-07T06:30:06.698Z,47.46
2019-05-07T06:32:35.566Z,44.92
2019-05-07T06:35:04.551Z,44.66
2019-05-07T06:37:33.489Z,44.37
2019-05-07T06:40:20.360Z,42.89
2019-05-07T06:43:13.078Z,41.86
2019-05-07T06:45:45.966Z,41.19
2019-05-07T06:48:14.890Z,40.25
2019-05-07T06:50:56.904Z,38.72
2019-05-07T06:53:32.992Z,37.16
2019-05-07T06:56:04.143Z,39.03
2019-05-07T06:58:55.045Z,37.78
2019-05-07T07:01:44.015Z,35.73
2019-05-07T07:04:37.832Z,35.86
2019-05-07T07:07:36.572Z,35.14
2019-05-07T07:10:29.191Z,35.84
2019-05-07T07:12:58.152Z,35.32
2019-05-07T07:15:27.004Z,34.20
2019-05-07T07:17:55.824Z,34.13
2019-05-07T07:20:24.623Z,35.63
2019-05-07T07:22:54.441Z,34.24
2019-05-07T07:25:23.338Z,34.93
2019-05-07T07:27:52.266Z,34.70
2019-05-07T07:30:37.607Z,36.80
2019-05-07T07:33:07.457Z,37.32
2019-05-07T07:35:37.396Z,37.59
2019-05-07T07:38:23.832Z,36.38
2019-05-07T07:41:02.123Z,37.71
2019-05-07T07:43:32.513Z,37.57
2019-05-07T07:46:02.187Z,37.81
2019-05-07T07:48:32.065Z,38.28
2019-05-07T07:51:03.205Z,39.38
2019-05-07T07:53:35.266Z,38.45
2019-05-07T07:56:48.865Z,39.23
2019-05-07T07:59:22.134Z,40.01
2019-05-07T08:01:55.563Z,39.77
2019-05-07T08:04:24.425Z,40.86
2019-05-07T08:07:03.046Z,41.59
2019-05-07T08:09:33.154Z,39.33
2019-05-07T08:12:02.759Z,40.59
2019-05-07T08:14:32.543Z,40.46
2019-05-07T08:17:03.288Z,38.98
2019-05-07T08:19:32.961Z,41.04
2019-05-07T08:22:03.050Z,41.31
2019-05-07T08:24:33.059Z,41.18
2019-05-07T08:27:02.579Z,40.25
2019-05-07T08:29:32.834Z,38.88
2019-05-07T08:32:39.471Z,39.34
2019-05-07T08:35:18.546Z,40.54
2019-05-07T08:37:47.611Z,39.53
2019-05-07T08:40:17.556Z,40.38
2019-05-07T08:42:46.444Z,39.31
2019-05-07T08:45:33.205Z,39.75
2019-05-07T08:48:05.360Z,37.08
2019-05-07T08:50:34.328Z,37.32
2019-05-07T08:53:03.243Z,37.77
2019-05-07T08:55:32.339Z,39.11
2019-05-07T08:58:02.212Z,38.07
2019-05-07T09:00:32.581Z,34.68
2019-05-07T09:03:01.742Z,35.86
2019-05-07T09:05:32.363Z,37.54
2019-05-07T09:08:02.239Z,37.64
2019-05-07T09:10:32.484Z,37.42
2019-05-07T09:13:02.772Z,36.80
2019-05-07T09:15:32.185Z,38.45
2019-05-07T09:18:02.202Z,39.62
2019-05-07T09:20:32.141Z,38.89
2019-05-07T09:23:02.106Z,41.07
2019-05-07T09:25:32.984Z,41.88
2019-05-07T09:28:02.629Z,40.91
2019-05-07T09:30:56.825Z,40.73
2019-05-07T09:33:33.036Z,40.06
2019-05-07T09:36:03.040Z,41.46
2019-05-07T09:38:32.804Z,42.92
2019-05-07T09:41:04.388Z,41.90
2019-05-07T09:43:33.163Z,41.56
2019-05-07T09:46:02.658Z,42.65
2019-05-07T09:48:33.874Z,43.87
2019-05-07T09:51:02.854Z,42.70
2019-05-07T09:53:32.220Z,42.39
2019-05-07T09:56:02.115Z,42.45
2019-05-07T09:58:38.483Z,43.55
2019-05-07T10:01:05.158Z,41.06
2019-05-07T10:03:34.089Z,42.41
2019-05-07T10:06:03.005Z,39.16
2019-05-07T10:08:32.890Z,38.18
2019-05-07T10:11:02.824Z,39.62
2019-05-07T10:13:52.414Z,39.79
2019-05-07T10:16:28.435Z,37.99
2019-05-07T10:18:57.541Z,39.16
2019-05-07T10:21:26.471Z,39.18
2019-05-07T10:23:56.365Z,38.88
2019-05-07T10:26:25.174Z,39.90
2019-05-07T10:28:54.041Z,37.73
2019-05-07T10:31:23.211Z,37.29
2019-05-07T10:33:52.490Z,38.74
2019-05-07T10:36:27.345Z,39.36
2019-05-07T10:38:56.139Z,37.17
2019-05-07T10:41:26.220Z,36.98
2019-05-07T10:43:55.059Z,36.34
2019-05-07T10:47:02.081Z,37.27
2019-05-07T10:49:37.198Z,38.10
2019-05-07T10:52:06.129Z,35.41
2019-05-07T10:54:34.975Z,37.82
2019-05-07T10:57:03.900Z,38.73
2019-05-07T10:59:33.171Z,38.40
2019-05-07T11:02:16.578Z,39.20
2019-05-07T11:04:46.030Z,38.23
2019-05-07T11:07:15.195Z,38.50
2019-05-07T11:09:44.118Z,37.83
2019-05-07T11:12:13.341Z,37.58
2019-05-07T11:14:42.220Z,38.79
2019-05-07T11:17:29.995Z,40.33
2019-05-07T11:19:58.925Z,39.13
2019-05-07T11:22:28.329Z,39.53
2019-05-07T11:24:57.373Z,40.19
2019-05-07T11:27:27.280Z,38.37
2019-05-07T11:29:56.086Z,37.34
2019-05-07T11:32:24.913Z,40.29
2019-05-07T11:34:56.370Z,38.19
2019-05-07T11:37:25.711Z,37.97
2019-05-07T11:39:55.551Z,38.42
2019-05-07T11:42:45.127Z,37.85
2019-05-07T11:45:20.256Z,36.85
2019-05-07T11:47:54.649Z,37.05
2019-05-07T11:50:44.149Z,36.71
2019-05-07T11:53:14.834Z,35.87
2019-05-07T11:55:43.832Z,38.18
2019-05-07T11:58:12.998Z,38.48
2019-05-07T12:01:07.446Z,36.78
2019-05-07T12:03:40.289Z,36.06
2019-05-07T12:06:12.296Z,37.88
2019-05-07T12:08:45.896Z,36.58
2019-05-07T12:11:11.886Z,36.03
2019-05-07T12:13:42.742Z,37.86
2019-05-07T12:16:14.101Z,37.19
2019-05-07T12:18:43.160Z,38.26
2019-05-07T12:21:20.190Z,36.14
2019-05-07T12:23:42.869Z,38.32
2019-05-07T12:26:12.561Z,38.34
2019-05-07T12:28:45.115Z,37.93
2019-05-07T12:31:27.419Z,37.23
2019-05-07T12:34:03.216Z,35.21
2019-05-07T12:36:32.215Z,34.41
2019-05-07T12:39:02.361Z,33.11
2019-05-07T12:41:33.743Z,32.84
2019-05-07T12:44:06.326Z,34.34
2019-05-07T12:46:35.697Z,33.11
2019-05-07T12:49:04.897Z,32.76
2019-05-07T12:51:53.851Z,31.91
2019-05-07T12:54:36.719Z,31.58
2019-05-07T12:57:05.690Z,28.79
2019-05-07T12:59:34.494Z,29.35
2019-05-07T13:02:36.426Z,31.16
2019-05-07T13:04:52.155Z,29.38
2019-05-07T13:07:38.918Z,30.45
2019-05-07T13:10:08.565Z,29.87
2019-05-07T13:12:37.718Z,30.35
2019-05-07T13:15:20.548Z,30.92
2019-05-07T13:17:37.858Z,30.78
2019-05-07T13:20:06.880Z,29.86
2019-05-07T13:22:38.526Z,32.52
2019-05-07T13:25:09.523Z,32.78
2019-05-07T13:27:40.122Z,33.17
2019-05-07T13:30:09.250Z,30.76
2019-05-07T13:32:39.491Z,31.50
2019-05-07T13:35:08.363Z,31.15
2019-05-07T13:37:41.773Z,30.48
2019-05-07T13:40:20.173Z,30.61
2019-05-07T13:42:59.099Z,32.18
2019-05-07T13:45:53.032Z,32.53
2019-05-07T13:48:22.580Z,33.39
2019-05-07T13:50:51.711Z,33.08
2019-05-07T13:53:23.564Z,34.14
2019-05-07T13:55:52.506Z,33.18
2019-05-07T13:58:23.383Z,33.56
2019-05-07T14:01:20.142Z,33.63
2019-05-07T14:03:48.955Z,33.32
2019-05-07T14:06:36.846Z,34.92
2019-05-07T14:09:10.524Z,32.85
2019-05-07T14:11:41.959Z,33.51
2019-05-07T14:14:12.222Z,31.68
2019-05-07T14:16:44.693Z,35.29
2019-05-07T14:19:13.023Z,33.13
2019-05-07T14:21:42.406Z,33.81
2019-05-07T14:24:12.337Z,35.66
2019-05-07T14:26:42.967Z,35.75
2019-05-07T14:29:11.845Z,33.95
2019-05-07T14:31:42.611Z,32.95
2019-05-07T14:34:25.898Z,32.49
2019-05-07T14:37:16.553Z,32.89
2019-05-07T14:39:45.411Z,34.70
2019-05-07T14:42:22.062Z,35.73
2019-05-07T14:44:52.761Z,34.46
2019-05-07T14:47:22.420Z,34.18
2019-05-07T14:49:53.021Z,34.20
2019-05-07T14:52:31.958Z,34.70
2019-05-07T14:54:52.653Z,36.61
2019-05-07T14:57:22.186Z,35.95
2019-05-07T14:59:52.378Z,33.20
2019-05-07T15:02:23.449Z,34.08
2019-05-07T15:04:52.603Z,30.95
2019-05-07T15:07:22.642Z,30.40
2019-05-07T15:09:51.952Z,32.40
2019-05-07T15:12:23.086Z,33.04
2019-05-07T15:14:52.753Z,34.67
2019-05-07T15:17:28.871Z,31.97
2019-05-07T15:19:57.730Z,31.89
2019-05-07T15:22:47.118Z,32.08
2019-05-07T15:25:14.155Z,32.13
2019-05-07T15:27:43.523Z,34.56
2019-05-07T15:30:13.426Z,33.79
2019-05-07T15:32:42.844Z,31.79
2019-05-07T15:35:12.595Z,33.83
2019-05-07T15:37:42.731Z,33.79
2019-05-07T15:40:11.880Z,34.87
2019-05-07T15:42:42.186Z,35.42
2019-05-07T15:45:12.554Z,35.48
2019-05-07T15:47:45.096Z,32.93
2019-05-07T15:50:14.080Z,35.67
2019-05-07T15:52:58.240Z,36.05
2019-05-07T15:55:19.178Z,34.11
2019-05-07T15:57:48.451Z,34.23
2019-05-07T16:00:21.784Z,33.66
2019-05-07T16:02:54.340Z,35.54
2019-05-07T16:05:23.159Z,35.78
2019-05-07T16:07:52.658Z,36.40
2019-05-07T16:10:23.344Z,37.00
2019-05-07T16:12:53.226Z,37.58
2019-05-07T16:15:22.610Z,38.50
2019-05-07T16:17:59.020Z,39.19
2019-05-07T16:20:27.951Z,39.20
2019-05-07T16:23:13.561Z,38.43
2019-05-07T16:25:32.851Z,35.60
2019-05-07T16:28:04.828Z,35.73
2019-05-07T16:30:32.854Z,33.84
2019-05-07T16:33:02.312Z,33.58
2019-05-07T16:35:32.016Z,32.70
2019-05-07T16:38:01.201Z,35.72
2019-05-07T16:40:34.669Z,35.48
2019-05-07T16:43:04.270Z,36.57
2019-05-07T16:45:33.226Z,38.85
2019-05-07T16:48:03.220Z,37.92
2019-05-07T16:50:33.574Z,38.26
2019-05-07T16:53:02.990Z,39.41
2019-05-07T16:55:36.821Z,39.68
2019-05-07T16:58:14.549Z,39.25
2019-05-07T17:00:46.266Z,37.26
2019-05-07T17:03:23.133Z,38.65
2019-05-07T17:05:52.401Z,39.97
2019-05-07T17:08:46.170Z,40.83
2019-05-07T17:11:15.030Z,41.46
2019-05-07T17:13:44.024Z,38.91
2019-05-07T17:16:12.936Z,37.24
2019-05-07T17:18:41.877Z,37.99
2019-05-07T17:21:12.334Z,38.00
2019-05-07T17:23:44.717Z,35.41
2019-05-07T17:26:11.900Z,36.28
2019-05-07T17:28:42.529Z,37.62
2019-05-07T17:31:12.371Z,38.52
2019-05-07T17:33:42.470Z,38.89
2019-05-07T17:36:12.068Z,40.05
2019-05-07T17:38:42.845Z,39.04
2019-05-07T17:41:19.985Z,40.49
2019-05-07T17:43:42.431Z,37.40
2019-05-07T17:46:12.279Z,38.84
2019-05-07T17:48:42.872Z,41.60
2019-05-07T17:51:32.337Z,39.83
2019-05-07T17:54:01.162Z,40.53
2019-05-07T17:56:31.865Z,41.84
2019-05-07T17:59:02.684Z,42.31
2019-05-07T18:01:50.019Z,43.30
2019-05-07T18:04:17.712Z,43.68
2019-05-07T18:06:46.712Z,43.94
2019-05-07T18:09:15.696Z,42.53
2019-05-07T18:11:44.581Z,43.41
2019-05-07T18:14:14.055Z,44.11
2019-05-07T18:16:56.282Z,44.74
2019-05-07T18:19:25.887Z,45.70
2019-05-07T18:22:14.465Z,46.59
2019-05-07T18:24:43.433Z,46.97
2019-05-07T18:27:24.130Z,46.73
2019-05-07T18:30:03.863Z,48.38
2019-05-07T18:32:37.435Z,48.27
2019-05-07T18:35:06.580Z,49.60
2019-05-07T18:37:52.465Z,48.76
2019-05-07T18:40:22.123Z,49.83
2019-05-07T18:42:52.503Z,49.53
2019-05-07T18:45:23.507Z,50.31
2019-05-07T18:47:52.413Z,50.39
2019-05-07T18:50:27.527Z,50.96
2019-05-07T18:52:56.508Z,51.44
2019-05-07T18:55:25.391Z,52.02
2019-05-07T18:57:54.323Z,52.79
2019-05-07T19:00:31.613Z,53.26
2019-05-07T19:02:59.903Z,53.22
2019-05-07T19:05:28.811Z,53.54
2019-05-07T19:08:05.445Z,53.92
2019-05-07T19:10:36.024Z,54.68
2019-05-07T19:13:05.242Z,54.69
2019-05-07T19:15:34.355Z,54.48
2019-05-07T19:18:03.374Z,54.42
2019-05-07T19:20:33.386Z,55.08
2019-05-07T19:23:08.285Z,55.25
2019-05-07T19:25:43.366Z,55.89
2019-05-07T19:28:14.943Z,56.09
2019-05-07T19:33:32.849Z,56.95
2019-05-07T19:36:02.104Z,57.11
2019-05-07T19:38:32.326Z,57.63
2019-05-07T19:41:02.159Z,57.87
2019-05-07T19:43:32.882Z,58.16
2019-05-07T19:46:02.845Z,58.33
2019-05-07T19:48:32.381Z,58.66
2019-05-07T19:51:02.950Z,59.38
2019-05-07T19:53:35.844Z,59.46
2019-05-07T19:56:12.968Z,59.52
2019-05-07T19:58:43.010Z,59.75
2019-05-07T20:01:13.721Z,60.06
2019-05-07T20:03:52.868Z,60.76
2019-05-07T20:06:23.440Z,61.03
2019-05-07T20:08:53.716Z,61.27
2019-05-07T20:11:36.969Z,61.87
2019-05-07T20:14:06.030Z,62.08
2019-05-07T20:16:37.007Z,62.32
2019-05-07T20:19:05.988Z,62.53
2019-05-07T20:21:35.037Z,62.71
2019-05-07T20:24:03.952Z,62.95
2019-05-07T20:29:12.171Z,63.38
2019-05-07T20:31:42.339Z,63.65
2019-05-07T20:34:13.242Z,64.05
2019-05-07T20:36:42.799Z,64.30
2019-05-07T20:39:13.092Z,64.41
2019-05-07T20:41:43.106Z,64.35
2019-05-07T20:44:12.980Z,64.77
2019-05-07T20:46:42.277Z,65.17
2019-05-07T20:49:13.129Z,65.03
2019-05-07T20:51:42.030Z,65.23
2019-05-07T20:54:27.716Z,65.61
2019-05-07T20:57:05.790Z,65.62
2019-05-07T20:59:34.693Z,65.88
2019-05-07T21:02:03.898Z,66.06
2019-05-07T21:04:33.143Z,66.79
2019-05-07T21:07:02.305Z,66.97
2019-05-07T21:09:33.283Z,67.09
2019-05-07T21:12:02.133Z,67.31
2019-05-07T21:14:32.445Z,67.35
2019-05-07T21:17:01.453Z,67.16
2019-05-07T21:19:33.109Z,67.17
2019-05-07T21:22:03.134Z,67.81
2019-05-07T21:24:33.767Z,68.06
2019-05-07T21:27:02.766Z,68.60
2019-05-07T21:29:32.711Z,68.81
2019-05-07T21:32:03.319Z,68.74
2019-05-07T21:34:32.630Z,68.90
2019-05-07T21:37:03.308Z,68.82
2019-05-07T21:39:33.012Z,68.99
2019-05-07T21:42:02.098Z,69.08
2019-05-07T21:44:32.615Z,69.47
2019-05-07T21:47:03.883Z,69.94
2019-05-07T21:49:32.846Z,69.87
2019-05-07T21:52:02.067Z,70.15
2019-05-07T21:54:48.718Z,70.12
2019-05-07T21:57:34.878Z,70.46
2019-05-07T22:00:23.153Z,70.53
2019-05-07T22:02:52.681Z,70.85
2019-05-07T22:05:22.417Z,70.74
2019-05-07T22:07:54.176Z,71.31
2019-05-07T22:10:22.359Z,71.55
2019-05-07T22:12:52.002Z,71.28
2019-05-07T22:15:22.432Z,71.22
2019-05-07T22:17:52.074Z,71.46
2019-05-07T22:20:20.988Z,71.54
2019-05-07T22:22:52.033Z,71.56
2019-05-07T22:25:22.270Z,71.68
2019-05-07T22:27:52.998Z,72.25
2019-05-07T22:30:28.029Z,72.18
2019-05-07T22:33:02.501Z,72.28
2019-05-07T22:35:35.226Z,72.65
2019-05-07T22:38:04.390Z,72.46
2019-05-07T22:40:33.170Z,72.82
2019-05-07T22:43:02.208Z,72.85
2019-05-07T22:45:32.222Z,72.88
2019-05-07T22:48:02.793Z,72.95
2019-05-07T22:50:33.154Z,72.82
2019-05-07T22:53:02.249Z,73.01
2019-05-07T22:55:32.663Z,73.13
2019-05-07T22:58:09.446Z,73.41
2019-05-07T23:00:42.716Z,73.52
2019-05-07T23:03:12.401Z,73.70
2019-05-07T23:05:42.221Z,73.73
2019-05-07T23:08:12.797Z,73.74
2019-05-07T23:10:42.117Z,74.00
2019-05-07T23:13:12.982Z,74.03
2019-05-07T23:15:42.948Z,74.28
2019-05-07T23:18:13.054Z,74.27
2019-05-07T23:20:42.700Z,74.26
2019-05-07T23:23:14.099Z,74.54
2019-05-07T23:25:43.132Z,74.33
2019-05-07T23:28:12.635Z,74.75
2019-05-07T23:30:42.155Z,74.59
2019-05-07T23:33:12.592Z,74.53
2019-05-07T23:35:42.141Z,74.80
2019-05-07T23:38:12.187Z,74.96
2019-05-07T23:41:02.144Z,75.19
2019-05-07T23:43:31.018Z,75.37
2019-05-07T23:46:02.109Z,75.54
2019-05-07T23:48:32.126Z,75.26
2019-05-07T23:51:02.060Z,75.20
2019-05-07T23:53:31.714Z,75.42
2019-05-07T23:56:02.789Z,75.54
2019-05-07T23:58:32.663Z,75.50
